Terminal Aerodrome Forecast
Issued by NWS Wilmington, OH

Current Version | Previous Version | Graphics & Text | Print | Product List | Glossary On
Versions: 1 2 3 4 5 6 7 8 9 10 11 12 13 14 15 16 17 18 19 20 21
000
FTUS41 KILN 221500 AAA
TAFCVG
TAF AMD
KCVG 221500Z 2215/2318 04012KT P6SM SKC
     FM230000 09005KT P6SM SCT250
     FM231400 11008KT P6SM SCT150=

USA.gov is the U.S. government's official web portal to all federal, state and local government web resources and services.